sensor_id;sensor_type;location;lat;lon;timestamp;temperature;humidity
6627;DHT22;3349;49.830;8.748;2023-05-10T00:02:26;12.90;99.90
6627;DHT22;3349;49.830;8.748;2023-05-10T00:04:52;12.90;99.90
6627;DHT22;3349;49.830;8.748;2023-05-10T00:07:19;12.90;99.90
6627;DHT22;3349;49.830;8.748;2023-05-10T00:09:46;12.90;99.90
6627;DHT22;3349;49.830;8.748;2023-05-10T00:12:13;12.90;99.90
6627;DHT22;3349;49.830;8.748;2023-05-10T00:14:41;12.80;99.90
6627;DHT22;3349;49.830;8.748;2023-05-10T00:17:07;12.80;99.90
6627;DHT22;3349;49.830;8.748;2023-05-10T00:19:34;12.80;99.90
6627;DHT22;3349;49.830;8.748;2023-05-10T00:22:01;12.80;99.90
6627;DHT22;3349;49.830;8.748;2023-05-10T00:24:28;12.90;99.90
6627;DHT22;3349;49.830;8.748;2023-05-10T00:26:55;12.90;99.90
6627;DHT22;3349;49.830;8.748;2023-05-10T00:29:21;12.90;99.90
6627;DHT22;3349;49.830;8.748;2023-05-10T00:31:49;12.90;99.90
6627;DHT22;3349;49.830;8.748;2023-05-10T00:34:16;12.90;99.90
6627;DHT22;3349;49.830;8.748;2023-05-10T00:36:43;12.90;99.90
6627;DHT22;3349;49.830;8.748;2023-05-10T00:39:09;12.90;99.90
6627;DHT22;3349;49.830;8.748;2023-05-10T00:41:36;12.90;99.90
6627;DHT22;3349;49.830;8.748;2023-05-10T00:44:03;12.80;99.90
6627;DHT22;3349;49.830;8.748;2023-05-10T00:46:30;12.80;99.90
6627;DHT22;3349;49.830;8.748;2023-05-10T00:48:58;12.80;99.90
6627;DHT22;3349;49.830;8.748;2023-05-10T00:51:25;12.80;99.90
6627;DHT22;3349;49.830;8.748;2023-05-10T00:53:52;12.80;99.90
6627;DHT22;3349;49.830;8.748;2023-05-10T00:56:19;12.80;99.90
6627;DHT22;3349;49.830;8.748;2023-05-10T00:58:48;12.70;99.90
6627;DHT22;3349;49.830;8.748;2023-05-10T01:01:15;12.70;99.90
6627;DHT22;3349;49.830;8.748;2023-05-10T01:03:41;12.70;99.90
6627;DHT22;3349;49.830;8.748;2023-05-10T01:06:10;12.70;99.90
6627;DHT22;3349;49.830;8.748;2023-05-10T01:08:37;12.70;99.90
6627;DHT22;3349;49.830;8.748;2023-05-10T01:11:03;12.60;99.90
6627;DHT22;3349;49.830;8.748;2023-05-10T01:13:32;12.60;99.90
6627;DHT22;3349;49.830;8.748;2023-05-10T01:16:00;12.60;99.90
6627;DHT22;3349;49.830;8.748;2023-05-10T01:18:29;12.60;99.90
6627;DHT22;3349;49.830;8.748;2023-05-10T01:21:05;12.50;99.90
6627;DHT22;3349;49.830;8.748;2023-05-10T01:27:02;12.50;99.90
6627;DHT22;3349;49.830;8.748;2023-05-10T01:29:49;12.50;99.90
6627;DHT22;3349;49.830;8.748;2023-05-10T01:32:29;12.50;99.90
6627;DHT22;3349;49.830;8.748;2023-05-10T01:35:02;12.50;99.90
6627;DHT22;3349;49.830;8.748;2023-05-10T01:37:37;12.50;99.90
6627;DHT22;3349;49.830;8.748;2023-05-10T01:40:13;12.50;99.90
6627;DHT22;3349;49.830;8.748;2023-05-10T01:42:48;12.50;99.90
6627;DHT22;3349;49.830;8.748;2023-05-10T01:45:20;12.40;99.90
6627;DHT22;3349;49.830;8.748;2023-05-10T01:47:57;12.40;99.90
6627;DHT22;3349;49.830;8.748;2023-05-10T01:50:29;12.40;99.90
6627;DHT22;3349;49.830;8.748;2023-05-10T01:52:58;12.40;99.90
6627;DHT22;3349;49.830;8.748;2023-05-10T01:55:28;12.40;99.90
6627;DHT22;3349;49.830;8.748;2023-05-10T01:58:02;12.40;99.90
6627;DHT22;3349;49.830;8.748;2023-05-10T02:00:29;12.40;99.90
6627;DHT22;3349;49.830;8.748;2023-05-10T02:03:00;12.40;99.90
6627;DHT22;3349;49.830;8.748;2023-05-10T02:05:29;12.30;99.90
6627;DHT22;3349;49.830;8.748;2023-05-10T02:07:57;12.30;99.90
6627;DHT22;3349;49.830;8.748;2023-05-10T02:10:24;12.30;99.90
6627;DHT22;3349;49.830;8.748;2023-05-10T02:12:53;12.30;99.90
6627;DHT22;3349;49.830;8.748;2023-05-10T02:15:23;12.30;99.90
6627;DHT22;3349;49.830;8.748;2023-05-10T02:17:52;12.30;99.90
6627;DHT22;3349;49.830;8.748;2023-05-10T02:20:22;12.30;99.90
6627;DHT22;3349;49.830;8.748;2023-05-10T02:22:51;12.30;99.90
6627;DHT22;3349;49.830;8.748;2023-05-10T02:25:19;12.30;99.90
6627;DHT22;3349;49.830;8.748;2023-05-10T02:27:48;12.20;99.90
6627;DHT22;3349;49.830;8.748;2023-05-10T02:30:15;12.20;99.90
6627;DHT22;3349;49.830;8.748;2023-05-10T02:32:43;12.20;99.90
6627;DHT22;3349;49.830;8.748;2023-05-10T02:35:11;12.20;99.90
6627;DHT22;3349;49.830;8.748;2023-05-10T02:37:40;12.20;99.90
6627;DHT22;3349;49.830;8.748;2023-05-10T02:40:08;12.20;99.90
6627;DHT22;3349;49.830;8.748;2023-05-10T02:42:37;12.20;99.90
6627;DHT22;3349;49.830;8.748;2023-05-10T02:45:08;12.20;99.90
6627;DHT22;3349;49.830;8.748;2023-05-10T02:47:37;12.20;99.90
6627;DHT22;3349;49.830;8.748;2023-05-10T02:50:05;12.20;99.90
6627;DHT22;3349;49.830;8.748;2023-05-10T02:52:40;12.20;99.90
6627;DHT22;3349;49.830;8.748;2023-05-10T02:55:11;12.20;99.90
6627;DHT22;3349;49.830;8.748;2023-05-10T02:57:43;12.20;99.90
6627;DHT22;3349;49.830;8.748;2023-05-10T03:00:11;12.20;99.90
6627;DHT22;3349;49.830;8.748;2023-05-10T03:02:38;12.20;99.90
6627;DHT22;3349;49.830;8.748;2023-05-10T03:05:05;12.20;99.90
6627;DHT22;3349;49.830;8.748;2023-05-10T03:07:32;12.20;99.90
6627;DHT22;3349;49.830;8.748;2023-05-10T03:10:01;12.20;99.90
6627;DHT22;3349;49.830;8.748;2023-05-10T03:12:37;12.20;99.90
6627;DHT22;3349;49.830;8.748;2023-05-10T03:15:11;12.20;99.90
6627;DHT22;3349;49.830;8.748;2023-05-10T03:17:46;12.20;99.90
6627;DHT22;3349;49.830;8.748;2023-05-10T03:20:21;12.20;99.90
6627;DHT22;3349;49.830;8.748;2023-05-10T03:22:53;12.10;99.90
6627;DHT22;3349;49.830;8.748;2023-05-10T03:25:23;12.10;99.90
6627;DHT22;3349;49.830;8.748;2023-05-10T03:27:50;12.10;99.90
6627;DHT22;3349;49.830;8.748;2023-05-10T03:30:18;12.20;99.90
6627;DHT22;3349;49.830;8.748;2023-05-10T03:32:45;12.20;99.90
6627;DHT22;3349;49.830;8.748;2023-05-10T03:35:12;12.20;99.90
6627;DHT22;3349;49.830;8.748;2023-05-10T03:37:39;12.20;99.90
6627;DHT22;3349;49.830;8.748;2023-05-10T03:40:07;12.20;99.90
6627;DHT22;3349;49.830;8.748;2023-05-10T03:42:36;12.20;99.90
6627;DHT22;3349;49.830;8.748;2023-05-10T03:45:03;12.20;99.90
6627;DHT22;3349;49.830;8.748;2023-05-10T03:47:29;12.20;99.90
6627;DHT22;3349;49.830;8.748;2023-05-10T03:49:57;12.20;99.90
6627;DHT22;3349;49.830;8.748;2023-05-10T03:52:23;12.20;99.90
6627;DHT22;3349;49.830;8.748;2023-05-10T03:54:50;12.20;99.90
6627;DHT22;3349;49.830;8.748;2023-05-10T03:57:17;12.20;99.90
6627;DHT22;3349;49.830;8.748;2023-05-10T03:59:45;12.20;99.90
6627;DHT22;3349;49.830;8.748;2023-05-10T04:02:12;12.10;99.90
6627;DHT22;3349;49.830;8.748;2023-05-10T04:04:38;12.20;99.90
6627;DHT22;3349;49.830;8.748;2023-05-10T04:07:05;12.20;99.90
6627;DHT22;3349;49.830;8.748;2023-05-10T04:09:32;12.20;99.90
6627;DHT22;3349;49.830;8.748;2023-05-10T04:11:58;12.20;99.90
6627;DHT22;3349;49.830;8.748;2023-05-10T04:14:25;12.20;99.90
6627;DHT22;3349;49.830;8.748;2023-05-10T04:16:53;12.20;99.90
6627;DHT22;3349;49.830;8.748;2023-05-10T04:19:20;12.20;99.90
6627;DHT22;3349;49.830;8.748;2023-05-10T04:21:47;12.30;99.90
6627;DHT22;3349;49.830;8.748;2023-05-10T04:24:14;12.30;99.90
6627;DHT22;3349;49.830;8.748;2023-05-10T04:26:40;12.30;99.90
6627;DHT22;3349;49.830;8.748;2023-05-10T04:29:07;12.30;99.90
6627;DHT22;3349;49.830;8.748;2023-05-10T04:31:34;12.30;99.90
6627;DHT22;3349;49.830;8.748;2023-05-10T04:34:03;12.30;99.90
6627;DHT22;3349;49.830;8.748;2023-05-10T04:36:29;12.40;99.90
6627;DHT22;3349;49.830;8.748;2023-05-10T04:38:59;12.40;99.90
6627;DHT22;3349;49.830;8.748;2023-05-10T04:41:25;12.40;99.90
6627;DHT22;3349;49.830;8.748;2023-05-10T04:43:52;12.40;99.90
6627;DHT22;3349;49.830;8.748;2023-05-10T04:46:19;12.40;99.90
6627;DHT22;3349;49.830;8.748;2023-05-10T04:48:45;12.40;99.90
6627;DHT22;3349;49.830;8.748;2023-05-10T04:51:14;12.40;99.90
6627;DHT22;3349;49.830;8.748;2023-05-10T04:53:40;12.40;99.90
6627;DHT22;3349;49.830;8.748;2023-05-10T04:56:07;12.40;99.90
6627;DHT22;3349;49.830;8.748;2023-05-10T04:58:34;12.50;99.90
6627;DHT22;3349;49.830;8.748;2023-05-10T05:01:05;12.50;99.90
6627;DHT22;3349;49.830;8.748;2023-05-10T05:03:32;12.50;99.90
6627;DHT22;3349;49.830;8.748;2023-05-10T05:05:59;12.50;99.90
6627;DHT22;3349;49.830;8.748;2023-05-10T05:08:27;12.50;99.90
6627;DHT22;3349;49.830;8.748;2023-05-10T05:10:54;12.50;99.90
6627;DHT22;3349;49.830;8.748;2023-05-10T05:13:21;12.50;99.90
6627;DHT22;3349;49.830;8.748;2023-05-10T05:15:47;12.60;99.90
6627;DHT22;3349;49.830;8.748;2023-05-10T05:18:14;12.60;99.90
6627;DHT22;3349;49.830;8.748;2023-05-10T05:20:41;12.60;99.90
6627;DHT22;3349;49.830;8.748;2023-05-10T05:23:08;12.70;99.90
6627;DHT22;3349;49.830;8.748;2023-05-10T05:25:36;12.70;99.90
6627;DHT22;3349;49.830;8.748;2023-05-10T05:28:02;12.80;99.90
6627;DHT22;3349;49.830;8.748;2023-05-10T05:30:29;12.80;99.90
6627;DHT22;3349;49.830;8.748;2023-05-10T05:32:56;12.80;99.90
6627;DHT22;3349;49.830;8.748;2023-05-10T05:35:23;12.90;99.90
6627;DHT22;3349;49.830;8.748;2023-05-10T05:37:50;12.90;99.90
6627;DHT22;3349;49.830;8.748;2023-05-10T05:40:16;12.90;99.90
6627;DHT22;3349;49.830;8.748;2023-05-10T05:42:44;13.00;99.90
6627;DHT22;3349;49.830;8.748;2023-05-10T05:45:11;13.00;99.90
6627;DHT22;3349;49.830;8.748;2023-05-10T05:47:39;13.10;99.90
6627;DHT22;3349;49.830;8.748;2023-05-10T05:50:06;13.20;99.90
6627;DHT22;3349;49.830;8.748;2023-05-10T05:52:33;13.30;99.90
6627;DHT22;3349;49.830;8.748;2023-05-10T05:54:59;13.30;99.90
6627;DHT22;3349;49.830;8.748;2023-05-10T05:57:26;13.40;99.90
6627;DHT22;3349;49.830;8.748;2023-05-10T05:59:54;13.40;99.90
6627;DHT22;3349;49.830;8.748;2023-05-10T06:02:21;13.40;99.90
6627;DHT22;3349;49.830;8.748;2023-05-10T06:04:48;13.40;99.90
6627;DHT22;3349;49.830;8.748;2023-05-10T06:07:15;13.50;99.90
6627;DHT22;3349;49.830;8.748;2023-05-10T06:09:41;13.50;99.90
6627;DHT22;3349;49.830;8.748;2023-05-10T06:12:08;13.60;99.90
6627;DHT22;3349;49.830;8.748;2023-05-10T06:14:35;13.60;99.90
6627;DHT22;3349;49.830;8.748;2023-05-10T06:17:03;13.70;99.90
6627;DHT22;3349;49.830;8.748;2023-05-10T06:19:30;13.70;99.90
6627;DHT22;3349;49.830;8.748;2023-05-10T06:21:57;13.80;99.90
6627;DHT22;3349;49.830;8.748;2023-05-10T06:24:23;13.80;99.90
6627;DHT22;3349;49.830;8.748;2023-05-10T06:26:50;13.80;99.90
6627;DHT22;3349;49.830;8.748;2023-05-10T06:29:17;13.80;99.90
6627;DHT22;3349;49.830;8.748;2023-05-10T06:31:43;13.80;99.90
6627;DHT22;3349;49.830;8.748;2023-05-10T06:34:12;13.90;99.90
6627;DHT22;3349;49.830;8.748;2023-05-10T06:36:39;14.00;99.90
6627;DHT22;3349;49.830;8.748;2023-05-10T06:39:06;14.10;99.90
6627;DHT22;3349;49.830;8.748;2023-05-10T06:41:33;14.20;99.90
6627;DHT22;3349;49.830;8.748;2023-05-10T06:44:00;14.10;99.90
6627;DHT22;3349;49.830;8.748;2023-05-10T06:46:26;14.20;99.90
6627;DHT22;3349;49.830;8.748;2023-05-10T06:48:53;14.20;99.90
6627;DHT22;3349;49.830;8.748;2023-05-10T06:51:21;14.30;99.90
6627;DHT22;3349;49.830;8.748;2023-05-10T06:53:48;14.50;99.90
6627;DHT22;3349;49.830;8.748;2023-05-10T06:56:14;14.60;99.90
6627;DHT22;3349;49.830;8.748;2023-05-10T06:58:41;14.60;99.90
6627;DHT22;3349;49.830;8.748;2023-05-10T07:01:08;14.80;99.90
6627;DHT22;3349;49.830;8.748;2023-05-10T07:03:35;14.90;99.90
6627;DHT22;3349;49.830;8.748;2023-05-10T07:06:02;14.90;99.90
6627;DHT22;3349;49.830;8.748;2023-05-10T07:08:31;14.90;99.90
6627;DHT22;3349;49.830;8.748;2023-05-10T07:11:02;15.00;99.90
6627;DHT22;3349;49.830;8.748;2023-05-10T07:13:29;15.10;99.90
6627;DHT22;3349;49.830;8.748;2023-05-10T07:15:56;15.10;99.90
6627;DHT22;3349;49.830;8.748;2023-05-10T07:18:23;15.00;99.90
6627;DHT22;3349;49.830;8.748;2023-05-10T07:20:50;15.20;99.90
6627;DHT22;3349;49.830;8.748;2023-05-10T07:23:17;15.20;99.90
6627;DHT22;3349;49.830;8.748;2023-05-10T07:25:46;15.30;99.90
6627;DHT22;3349;49.830;8.748;2023-05-10T07:28:13;15.30;99.90
6627;DHT22;3349;49.830;8.748;2023-05-10T07:30:40;15.40;99.90
6627;DHT22;3349;49.830;8.748;2023-05-10T07:33:07;15.40;99.90
6627;DHT22;3349;49.830;8.748;2023-05-10T07:35:34;15.40;99.30
6627;DHT22;3349;49.830;8.748;2023-05-10T07:38:01;15.60;98.20
6627;DHT22;3349;49.830;8.748;2023-05-10T07:40:28;15.60;97.90
6627;DHT22;3349;49.830;8.748;2023-05-10T07:42:56;15.60;98.20
6627;DHT22;3349;49.830;8.748;2023-05-10T07:45:23;15.70;97.00
6627;DHT22;3349;49.830;8.748;2023-05-10T07:47:50;15.80;98.90
6627;DHT22;3349;49.830;8.748;2023-05-10T07:50:17;16.00;97.20
6627;DHT22;3349;49.830;8.748;2023-05-10T07:52:43;16.10;96.30
6627;DHT22;3349;49.830;8.748;2023-05-10T07:55:10;16.20;94.80
6627;DHT22;3349;49.830;8.748;2023-05-10T07:57:37;16.10;93.60
6627;DHT22;3349;49.830;8.748;2023-05-10T08:00:07;16.10;94.30
6627;DHT22;3349;49.830;8.748;2023-05-10T08:02:35;16.10;93.90
6627;DHT22;3349;49.830;8.748;2023-05-10T08:05:01;16.20;94.50
6627;DHT22;3349;49.830;8.748;2023-05-10T08:07:28;16.30;93.50
6627;DHT22;3349;49.830;8.748;2023-05-10T08:09:55;16.30;93.00
6627;DHT22;3349;49.830;8.748;2023-05-10T08:12:22;16.20;93.10
6627;DHT22;3349;49.830;8.748;2023-05-10T08:14:48;16.10;93.40
6627;DHT22;3349;49.830;8.748;2023-05-10T08:17:16;16.00;92.30
6627;DHT22;3349;49.830;8.748;2023-05-10T08:19:43;16.00;92.30
6627;DHT22;3349;49.830;8.748;2023-05-10T08:22:10;15.90;93.20
6627;DHT22;3349;49.830;8.748;2023-05-10T08:24:36;15.70;94.20
6627;DHT22;3349;49.830;8.748;2023-05-10T08:27:04;15.50;95.10
6627;DHT22;3349;49.830;8.748;2023-05-10T08:29:31;15.40;95.50
6627;DHT22;3349;49.830;8.748;2023-05-10T08:31:58;15.30;96.00
6627;DHT22;3349;49.830;8.748;2023-05-10T08:34:27;15.20;96.80
6627;DHT22;3349;49.830;8.748;2023-05-10T08:36:54;15.10;98.10
6627;DHT22;3349;49.830;8.748;2023-05-10T08:39:21;15.00;99.10
6627;DHT22;3349;49.830;8.748;2023-05-10T08:41:51;15.00;99.60
6627;DHT22;3349;49.830;8.748;2023-05-10T08:44:20;15.00;99.90
6627;DHT22;3349;49.830;8.748;2023-05-10T08:46:50;15.10;99.90
6627;DHT22;3349;49.830;8.748;2023-05-10T08:49:20;15.10;99.50
6627;DHT22;3349;49.830;8.748;2023-05-10T08:51:52;15.20;99.50
6627;DHT22;3349;49.830;8.748;2023-05-10T08:54:21;15.20;99.90
6627;DHT22;3349;49.830;8.748;2023-05-10T08:56:48;15.20;99.90
6627;DHT22;3349;49.830;8.748;2023-05-10T08:59:15;15.30;99.90
6627;DHT22;3349;49.830;8.748;2023-05-10T09:01:43;15.40;98.70
6627;DHT22;3349;49.830;8.748;2023-05-10T09:04:11;15.50;98.20
6627;DHT22;3349;49.830;8.748;2023-05-10T09:06:38;15.60;98.20
6627;DHT22;3349;49.830;8.748;2023-05-10T09:09:06;15.70;96.50
6627;DHT22;3349;49.830;8.748;2023-05-10T09:11:33;15.90;96.00
6627;DHT22;3349;49.830;8.748;2023-05-10T09:14:01;15.90;95.60
6627;DHT22;3349;49.830;8.748;2023-05-10T09:16:28;15.90;94.40
6627;DHT22;3349;49.830;8.748;2023-05-10T09:18:54;15.90;94.20
6627;DHT22;3349;49.830;8.748;2023-05-10T09:21:21;15.80;93.70
6627;DHT22;3349;49.830;8.748;2023-05-10T09:23:48;15.70;94.40
6627;DHT22;3349;49.830;8.748;2023-05-10T09:26:22;16.00;94.60
6627;DHT22;3349;49.830;8.748;2023-05-10T09:28:52;16.50;93.50
6627;DHT22;3349;49.830;8.748;2023-05-10T09:31:19;17.00;91.70
6627;DHT22;3349;49.830;8.748;2023-05-10T09:33:47;17.30;87.40
6627;DHT22;3349;49.830;8.748;2023-05-10T09:36:15;18.40;87.00
6627;DHT22;3349;49.830;8.748;2023-05-10T09:38:48;18.80;76.30
6627;DHT22;3349;49.830;8.748;2023-05-10T09:41:18;19.00;70.60
6627;DHT22;3349;49.830;8.748;2023-05-10T09:43:45;18.80;68.70
6627;DHT22;3349;49.830;8.748;2023-05-10T09:46:12;18.40;69.80
6627;DHT22;3349;49.830;8.748;2023-05-10T09:48:42;17.90;73.00
6627;DHT22;3349;49.830;8.748;2023-05-10T09:51:09;17.60;72.70
6627;DHT22;3349;49.830;8.748;2023-05-10T09:53:36;17.40;73.60
6627;DHT22;3349;49.830;8.748;2023-05-10T09:56:03;17.10;74.10
6627;DHT22;3349;49.830;8.748;2023-05-10T09:58:34;16.90;77.50
6627;DHT22;3349;49.830;8.748;2023-05-10T10:01:03;16.60;83.30
6627;DHT22;3349;49.830;8.748;2023-05-10T10:03:30;16.30;88.50
6627;DHT22;3349;49.830;8.748;2023-05-10T10:05:57;16.00;92.50
6627;DHT22;3349;49.830;8.748;2023-05-10T10:08:24;15.80;93.40
6627;DHT22;3349;49.830;8.748;2023-05-10T10:10:51;15.60;94.10
6627;DHT22;3349;49.830;8.748;2023-05-10T10:13:18;15.50;95.80
6627;DHT22;3349;49.830;8.748;2023-05-10T10:15:47;15.50;97.80
6627;DHT22;3349;49.830;8.748;2023-05-10T10:18:16;15.40;96.20
6627;DHT22;3349;49.830;8.748;2023-05-10T10:20:44;15.40;95.00
6627;DHT22;3349;49.830;8.748;2023-05-10T10:23:10;15.40;95.70
6627;DHT22;3349;49.830;8.748;2023-05-10T10:25:38;15.40;95.80
6627;DHT22;3349;49.830;8.748;2023-05-10T10:28:16;15.50;95.60
6627;DHT22;3349;49.830;8.748;2023-05-10T10:30:50;15.80;94.70
6627;DHT22;3349;49.830;8.748;2023-05-10T10:33:36;16.10;91.00
6627;DHT22;3349;49.830;8.748;2023-05-10T10:36:05;16.50;87.40
6627;DHT22;3349;49.830;8.748;2023-05-10T10:38:37;17.10;80.90
6627;DHT22;3349;49.830;8.748;2023-05-10T10:41:10;17.70;74.70
6627;DHT22;3349;49.830;8.748;2023-05-10T10:43:37;18.50;66.10
6627;DHT22;3349;49.830;8.748;2023-05-10T10:46:13;18.90;62.10
6627;DHT22;3349;49.830;8.748;2023-05-10T10:48:41;18.70;59.80
6627;DHT22;3349;49.830;8.748;2023-05-10T10:51:07;18.80;59.50
6627;DHT22;3349;49.830;8.748;2023-05-10T10:53:34;19.00;59.50
6627;DHT22;3349;49.830;8.748;2023-05-10T10:56:07;18.80;58.50
6627;DHT22;3349;49.830;8.748;2023-05-10T10:58:36;18.70;59.00
6627;DHT22;3349;49.830;8.748;2023-05-10T11:01:12;18.70;58.00
6627;DHT22;3349;49.830;8.748;2023-05-10T11:03:40;18.70;58.60
6627;DHT22;3349;49.830;8.748;2023-05-10T11:06:06;18.60;59.70
6627;DHT22;3349;49.830;8.748;2023-05-10T11:08:41;19.40;57.70
6627;DHT22;3349;49.830;8.748;2023-05-10T11:11:08;19.90;56.80
6627;DHT22;3349;49.830;8.748;2023-05-10T11:13:38;19.80;56.20
6627;DHT22;3349;49.830;8.748;2023-05-10T11:16:15;19.60;56.50
6627;DHT22;3349;49.830;8.748;2023-05-10T11:18:53;19.30;57.10
6627;DHT22;3349;49.830;8.748;2023-05-10T11:21:20;18.90;58.20
6627;DHT22;3349;49.830;8.748;2023-05-10T11:23:53;18.50;60.10
6627;DHT22;3349;49.830;8.748;2023-05-10T11:26:22;17.80;58.60
6627;DHT22;3349;49.830;8.748;2023-05-10T11:28:53;17.70;58.70
6627;DHT22;3349;49.830;8.748;2023-05-10T11:31:23;17.70;58.00
6627;DHT22;3349;49.830;8.748;2023-05-10T11:33:53;17.80;58.60
6627;DHT22;3349;49.830;8.748;2023-05-10T11:36:23;18.00;59.10
6627;DHT22;3349;49.830;8.748;2023-05-10T11:38:51;18.50;57.90
6627;DHT22;3349;49.830;8.748;2023-05-10T11:41:18;18.90;58.00
6627;DHT22;3349;49.830;8.748;2023-05-10T11:43:48;19.30;57.60
6627;DHT22;3349;49.830;8.748;2023-05-10T11:46:17;19.50;56.40
6627;DHT22;3349;49.830;8.748;2023-05-10T11:48:48;19.90;56.80
6627;DHT22;3349;49.830;8.748;2023-05-10T11:51:15;20.30;56.00
6627;DHT22;3349;49.830;8.748;2023-05-10T11:53:46;20.80;54.20
6627;DHT22;3349;49.830;8.748;2023-05-10T11:56:12;20.50;54.70
6627;DHT22;3349;49.830;8.748;2023-05-10T11:58:39;20.50;54.20
6627;DHT22;3349;49.830;8.748;2023-05-10T12:01:07;20.60;51.70
6627;DHT22;3349;49.830;8.748;2023-05-10T12:03:34;20.40;50.60
6627;DHT22;3349;49.830;8.748;2023-05-10T12:06:03;20.10;50.30
6627;DHT22;3349;49.830;8.748;2023-05-10T12:08:30;19.70;51.00
6627;DHT22;3349;49.830;8.748;2023-05-10T12:11:05;19.40;51.40
6627;DHT22;3349;49.830;8.748;2023-05-10T12:13:32;19.40;52.50
6627;DHT22;3349;49.830;8.748;2023-05-10T12:15:59;19.80;51.10
6627;DHT22;3349;49.830;8.748;2023-05-10T12:18:26;19.80;51.90
6627;DHT22;3349;49.830;8.748;2023-05-10T12:20:53;19.80;50.80
6627;DHT22;3349;49.830;8.748;2023-05-10T12:23:21;19.30;50.10
6627;DHT22;3349;49.830;8.748;2023-05-10T12:25:48;18.90;51.60
6627;DHT22;3349;49.830;8.748;2023-05-10T12:28:14;18.90;52.70
6627;DHT22;3349;49.830;8.748;2023-05-10T12:30:41;19.10;52.50
6627;DHT22;3349;49.830;8.748;2023-05-10T12:33:10;19.60;52.50
6627;DHT22;3349;49.830;8.748;2023-05-10T12:35:47;20.00;48.60
6627;DHT22;3349;49.830;8.748;2023-05-10T12:38:28;20.40;47.70
6627;DHT22;3349;49.830;8.748;2023-05-10T12:40:57;20.20;48.40
6627;DHT22;3349;49.830;8.748;2023-05-10T12:43:23;20.60;47.90
6627;DHT22;3349;49.830;8.748;2023-05-10T12:45:50;20.50;46.70
6627;DHT22;3349;49.830;8.748;2023-05-10T12:48:17;20.20;47.00
6627;DHT22;3349;49.830;8.748;2023-05-10T12:50:44;19.70;48.30
6627;DHT22;3349;49.830;8.748;2023-05-10T12:53:10;19.40;49.10
6627;DHT22;3349;49.830;8.748;2023-05-10T12:55:40;19.40;49.60
6627;DHT22;3349;49.830;8.748;2023-05-10T12:58:06;19.30;50.10
6627;DHT22;3349;49.830;8.748;2023-05-10T13:00:34;19.60;50.70
6627;DHT22;3349;49.830;8.748;2023-05-10T13:03:00;19.90;48.50
6627;DHT22;3349;49.830;8.748;2023-05-10T13:05:27;20.10;48.60
6627;DHT22;3349;49.830;8.748;2023-05-10T13:07:54;20.40;48.80
6627;DHT22;3349;49.830;8.748;2023-05-10T13:10:20;20.50;48.60
6627;DHT22;3349;49.830;8.748;2023-05-10T13:12:50;20.50;47.70
6627;DHT22;3349;49.830;8.748;2023-05-10T13:15:17;20.10;48.30
6627;DHT22;3349;49.830;8.748;2023-05-10T13:17:43;19.90;48.50
6627;DHT22;3349;49.830;8.748;2023-05-10T13:20:11;19.80;48.40
6627;DHT22;3349;49.830;8.748;2023-05-10T13:22:37;19.30;49.60
6627;DHT22;3349;49.830;8.748;2023-05-10T13:25:05;19.00;49.80
6627;DHT22;3349;49.830;8.748;2023-05-10T13:27:31;18.80;50.30
6627;DHT22;3349;49.830;8.748;2023-05-10T13:30:00;18.70;51.70
6627;DHT22;3349;49.830;8.748;2023-05-10T13:32:27;18.60;52.40
6627;DHT22;3349;49.830;8.748;2023-05-10T13:34:54;18.60;53.00
6627;DHT22;3349;49.830;8.748;2023-05-10T13:37:21;18.70;53.90
6627;DHT22;3349;49.830;8.748;2023-05-10T13:39:48;18.40;55.20
6627;DHT22;3349;49.830;8.748;2023-05-10T13:42:14;18.20;55.40
6627;DHT22;3349;49.830;8.748;2023-05-10T13:44:42;18.00;55.80
6627;DHT22;3349;49.830;8.748;2023-05-10T13:47:10;17.90;53.60
6627;DHT22;3349;49.830;8.748;2023-05-10T13:49:36;18.00;54.30
6627;DHT22;3349;49.830;8.748;2023-05-10T13:52:03;18.20;53.00
6627;DHT22;3349;49.830;8.748;2023-05-10T13:54:32;18.40;51.50
6627;DHT22;3349;49.830;8.748;2023-05-10T13:56:59;18.70;50.10
6627;DHT22;3349;49.830;8.748;2023-05-10T13:59:26;18.80;49.40
6627;DHT22;3349;49.830;8.748;2023-05-10T14:01:53;19.00;48.00
6627;DHT22;3349;49.830;8.748;2023-05-10T14:04:21;19.10;47.80
6627;DHT22;3349;49.830;8.748;2023-05-10T14:06:48;19.20;47.30
6627;DHT22;3349;49.830;8.748;2023-05-10T14:09:14;19.10;47.30
6627;DHT22;3349;49.830;8.748;2023-05-10T14:11:42;19.10;47.60
6627;DHT22;3349;49.830;8.748;2023-05-10T14:14:10;18.90;46.60
6627;DHT22;3349;49.830;8.748;2023-05-10T14:16:37;19.20;47.90
6627;DHT22;3349;49.830;8.748;2023-05-10T14:19:04;19.40;46.60
6627;DHT22;3349;49.830;8.748;2023-05-10T14:21:32;19.40;46.50
6627;DHT22;3349;49.830;8.748;2023-05-10T14:23:59;19.40;48.40
6627;DHT22;3349;49.830;8.748;2023-05-10T14:26:26;19.50;47.90
6627;DHT22;3349;49.830;8.748;2023-05-10T14:28:53;19.50;46.60
6627;DHT22;3349;49.830;8.748;2023-05-10T14:31:20;19.50;47.40
6627;DHT22;3349;49.830;8.748;2023-05-10T14:33:50;19.70;46.00
6627;DHT22;3349;49.830;8.748;2023-05-10T14:36:17;19.60;46.60
6627;DHT22;3349;49.830;8.748;2023-05-10T14:38:45;19.40;46.50
6627;DHT22;3349;49.830;8.748;2023-05-10T14:41:12;19.40;47.40
6627;DHT22;3349;49.830;8.748;2023-05-10T14:43:40;19.50;47.20
6627;DHT22;3349;49.830;8.748;2023-05-10T14:46:07;19.60;46.60
6627;DHT22;3349;49.830;8.748;2023-05-10T14:48:34;19.60;46.80
6627;DHT22;3349;49.830;8.748;2023-05-10T14:51:01;19.40;46.80
6627;DHT22;3349;49.830;8.748;2023-05-10T14:53:29;19.50;48.20
6627;DHT22;3349;49.830;8.748;2023-05-10T14:55:57;19.60;46.00
6627;DHT22;3349;49.830;8.748;2023-05-10T14:58:25;19.60;46.00
6627;DHT22;3349;49.830;8.748;2023-05-10T15:00:52;19.50;46.40
6627;DHT22;3349;49.830;8.748;2023-05-10T15:03:19;19.40;47.20
6627;DHT22;3349;49.830;8.748;2023-05-10T15:05:46;19.60;46.70
6627;DHT22;3349;49.830;8.748;2023-05-10T15:08:13;19.90;46.80
6627;DHT22;3349;49.830;8.748;2023-05-10T15:10:40;19.50;45.60
6627;DHT22;3349;49.830;8.748;2023-05-10T15:13:08;19.60;46.60
6627;DHT22;3349;49.830;8.748;2023-05-10T15:15:35;19.80;48.30
6627;DHT22;3349;49.830;8.748;2023-05-10T15:18:04;19.80;48.40
6627;DHT22;3349;49.830;8.748;2023-05-10T15:20:31;19.90;47.30
6627;DHT22;3349;49.830;8.748;2023-05-10T15:22:58;19.90;48.20
6627;DHT22;3349;49.830;8.748;2023-05-10T15:25:25;19.90;48.50
6627;DHT22;3349;49.830;8.748;2023-05-10T15:27:53;19.40;48.10
6627;DHT22;3349;49.830;8.748;2023-05-10T15:30:21;19.10;48.60
6627;DHT22;3349;49.830;8.748;2023-05-10T15:32:48;18.90;48.20
6627;DHT22;3349;49.830;8.748;2023-05-10T15:35:15;18.70;49.10
6627;DHT22;3349;49.830;8.748;2023-05-10T15:37:42;18.90;49.20
6627;DHT22;3349;49.830;8.748;2023-05-10T15:40:09;18.90;49.70
6627;DHT22;3349;49.830;8.748;2023-05-10T15:42:36;19.10;48.50
6627;DHT22;3349;49.830;8.748;2023-05-10T15:45:04;19.00;47.80
6627;DHT22;3349;49.830;8.748;2023-05-10T15:47:32;19.10;47.80
6627;DHT22;3349;49.830;8.748;2023-05-10T15:49:59;18.90;48.00
6627;DHT22;3349;49.830;8.748;2023-05-10T15:52:26;18.90;48.90
6627;DHT22;3349;49.830;8.748;2023-05-10T15:54:53;18.90;48.40
6627;DHT22;3349;49.830;8.748;2023-05-10T15:57:20;18.80;47.60
6627;DHT22;3349;49.830;8.748;2023-05-10T15:59:47;18.70;47.50
6627;DHT22;3349;49.830;8.748;2023-05-10T16:02:13;18.60;48.20
6627;DHT22;3349;49.830;8.748;2023-05-10T16:04:43;18.50;48.00
6627;DHT22;3349;49.830;8.748;2023-05-10T16:07:10;18.50;48.60
6627;DHT22;3349;49.830;8.748;2023-05-10T16:09:37;18.40;48.80
6627;DHT22;3349;49.830;8.748;2023-05-10T16:12:03;18.40;50.10